Oriana — ZCDU9 — position and weather

sailwx.info

Track history (hours):
 
Tides and Currents Weather Stations Pressure Air Temp Water Temp Dewpoint Dewpoint Depression Visibility Wind Speed Wind Dir Waves Ship Positions

Oriana (Bermuda)

Last reported at 2015-Aug-29 07:17 UTC. Time now 2015-Aug-30 11:48 UTC.
Position N 48°52' W 004°48'.

Length 261 m; beam 32.2 m; draft 8.2 m.

Type: Ship. MMSI: 310529000.

Date/timePositionNaut miles runAvg speedWind from/ knotsBaromVisibWave heightAir tempDewpointWater temp
2015-Aug-29 07:17N 48°52' W 004°48'7213.8
2015-Aug-29 02:04N 49°36' W 003°20'1616.1
2015-Aug-29 01:03N 49°47' W 003°03'7015.0
2015-Aug-28 20:26N 50°23' W 001°30'1312.0
2015-Aug-28 19:22N 50°28' W 001°11'911.0
2015-Aug-28 18:33N 50°34' W 001°00'1110.6
2015-Aug-28 17:33N 50°44' W 001°04'1211.8
2015-Aug-28 16:33N 50°50' W 001°19'2 0.1
2015-Aug-28 04:30N 50°52' W 001°21'8 8.8
2015-Aug-28 03:33N 50°46' W 001°12'1111.1
2015-Aug-28 02:33N 50°39' W 000°59'75417.9
2015-Aug-26 08:33N 39°44' W 009°50'2120.8
2015-Aug-26 07:33N 39°24' W 009°51'2020.3
2015-Aug-26 06:33N 39°03' W 009°51'2019.9
2015-Aug-26 05:33N 38°43' W 009°51'2020.0
2015-Aug-26 04:33N 38°24' W 009°46'2020.4
2015-Aug-26 03:33N 38°04' W 009°40'2020.3
2015-Aug-26 02:33N 37°44' W 009°35'2019.8
2015-Aug-26 01:32N 37°24' W 009°29'1919.8
2015-Aug-26 00:33N 37°06' W 009°23'2218.8
2015-Aug-25 23:22N 36°45' W 009°12'1619.4
2015-Aug-25 22:32N 36°40' W 008°53'2119.6
2015-Aug-25 21:28N 36°34' W 008°28'1819.4
2015-Aug-25 20:33N 36°28' W 008°07'2019.6
2015-Aug-25 19:33N 36°22' W 007°44'32513.4
2015-Aug-24 19:17N 36°35' W 001°00'1520.6
2015-Aug-24 18:33N 36°37' W 000°42'2120.5
2015-Aug-24 17:31N 36°41' W 000°16'30020.0
2015-Aug-24 02:30N 37°28' E 005°56'10220.4
2015-Aug-23 21:31N 37°44' E 008°03'2420.4
2015-Aug-23 20:21N 37°47' E 008°32'1619.9
2015-Aug-23 19:32N 37°50' E 008°53'2019.8
2015-Aug-23 18:33N 37°53' E 009°17'2019.9
2015-Aug-23 17:33N 37°56' E 009°42'2020.0
2015-Aug-23 16:33N 37°59' E 010°07'2020.2
2015-Aug-23 15:34N 38°03' E 010°32'2020.2
2015-Aug-23 14:33N 38°06' E 010°58'2020.5
2015-Aug-23 13:34N 38°09' E 011°24'2020.3
2015-Aug-23 12:34N 38°12' E 011°49'2020.4
2015-Aug-23 11:33N 38°15' E 012°15'2120.1
2015-Aug-23 10:30N 38°18' E 012°41'2320.3
2015-Aug-23 09:24N 38°19' E 013°10'1720.6
2015-Aug-23 08:34N 38°19' E 013°32'2720.5
2015-Aug-23 07:16N 38°19' E 014°06'1420.2
2015-Aug-23 06:34N 38°19' E 014°24'2020.3
2015-Aug-23 05:33N 38°19' E 014°50'2020.3
2015-Aug-23 04:33N 38°20' E 015°16'250 7.8
2015-Aug-21 20:32N 41°43' E 018°27'2020.2
2015-Aug-21 19:33N 42°02' E 018°19'2020.5
2015-Aug-21 18:33N 42°21' E 018°10'18 1.5
2015-Aug-21 06:29N 42°38' E 017°59'1515.8
2015-Aug-21 05:33N 42°38' E 017°39'  
Track history (hours):
 
Tides and Currents Weather Stations Pressure Air Temp Water Temp Dewpoint Dewpoint Depression Visibility Wind Speed Wind Dir Waves Ship Positions

Oriana (Bermuda)

Last reported at 2015-Aug-29 07:17 UTC. Time now 2015-Aug-30 11:48 UTC.
Position N 48°52' W 004°48'.

Length 261 m; beam 32.2 m; draft 8.2 m.

Type: Ship. MMSI: 310529000.

Date/timePositionNaut miles runAvg speedWind from/ knotsBaromVisibWave heightAir tempDewpointWater temp
2015-Aug-29 07:17N 48°52' W 004°48'7213.8
2015-Aug-29 02:04N 49°36' W 003°20'1616.1
2015-Aug-29 01:03N 49°47' W 003°03'7015.0
2015-Aug-28 20:26N 50°23' W 001°30'1312.0
2015-Aug-28 19:22N 50°28' W 001°11'911.0
2015-Aug-28 18:33N 50°34' W 001°00'1110.6
2015-Aug-28 17:33N 50°44' W 001°04'1211.8
2015-Aug-28 16:33N 50°50' W 001°19'2 0.1
2015-Aug-28 04:30N 50°52' W 001°21'8 8.8
2015-Aug-28 03:33N 50°46' W 001°12'1111.1
2015-Aug-28 02:33N 50°39' W 000°59'75417.9
2015-Aug-26 08:33N 39°44' W 009°50'2120.8
2015-Aug-26 07:33N 39°24' W 009°51'2020.3
2015-Aug-26 06:33N 39°03' W 009°51'2019.9
2015-Aug-26 05:33N 38°43' W 009°51'2020.0
2015-Aug-26 04:33N 38°24' W 009°46'2020.4
2015-Aug-26 03:33N 38°04' W 009°40'2020.3
2015-Aug-26 02:33N 37°44' W 009°35'2019.8
2015-Aug-26 01:32N 37°24' W 009°29'1919.8
2015-Aug-26 00:33N 37°06' W 009°23'2218.8
2015-Aug-25 23:22N 36°45' W 009°12'1619.4
2015-Aug-25 22:32N 36°40' W 008°53'2119.6
2015-Aug-25 21:28N 36°34' W 008°28'1819.4
2015-Aug-25 20:33N 36°28' W 008°07'2019.6
2015-Aug-25 19:33N 36°22' W 007°44'32513.4
2015-Aug-24 19:17N 36°35' W 001°00'1520.6
2015-Aug-24 18:33N 36°37' W 000°42'2120.5
2015-Aug-24 17:31N 36°41' W 000°16'30020.0
2015-Aug-24 02:30N 37°28' E 005°56'10220.4
2015-Aug-23 21:31N 37°44' E 008°03'2420.4
2015-Aug-23 20:21N 37°47' E 008°32'1619.9
2015-Aug-23 19:32N 37°50' E 008°53'2019.8
2015-Aug-23 18:33N 37°53' E 009°17'2019.9
2015-Aug-23 17:33N 37°56' E 009°42'2020.0
2015-Aug-23 16:33N 37°59' E 010°07'2020.2
2015-Aug-23 15:34N 38°03' E 010°32'2020.2
2015-Aug-23 14:33N 38°06' E 010°58'2020.5
2015-Aug-23 13:34N 38°09' E 011°24'2020.3
2015-Aug-23 12:34N 38°12' E 011°49'2020.4
2015-Aug-23 11:33N 38°15' E 012°15'2120.1
2015-Aug-23 10:30N 38°18' E 012°41'2320.3
2015-Aug-23 09:24N 38°19' E 013°10'1720.6
2015-Aug-23 08:34N 38°19' E 013°32'2720.5
2015-Aug-23 07:16N 38°19' E 014°06'1420.2
2015-Aug-23 06:34N 38°19' E 014°24'2020.3
2015-Aug-23 05:33N 38°19' E 014°50'2020.3
2015-Aug-23 04:33N 38°20' E 015°16'250 7.8
2015-Aug-21 20:32N 41°43' E 018°27'2020.2
2015-Aug-21 19:33N 42°02' E 018°19'2020.5
2015-Aug-21 18:33N 42°21' E 018°10'18 1.5
2015-Aug-21 06:29N 42°38' E 017°59'1515.8
2015-Aug-21 05:33N 42°38' E 017°39'  

Dump ship's entire track history